OIAG 
Aghajari Airport
Iran 
ICAOStatus
OIAGOperational
LatitudeLongitude
30° 44' 39" N49° 40' 37" E
30.74440049.677200
Local Time (DST+5)UTC (GMT+4)
04-25-2014 12:07 pm04-25-2014 07:37
Sunrise-SunsetLocalUTC
Begin Civil Twilight06:06 am01:36
Sunrise06:31 am02:01
Sunset07:46 pm15:16
End Civil Twilight08:12 pm15:42

Current Weather

METARObservedFlight Conditions

OIAG 250700Z 00000KT CAVOK 33/M00 Q1013

Fri, Apr 25, 2014 @ 07:00 UTC(Z)

(37 Minutes ago)

VFR

(Visual Flight Rules)

WindVisibilityCloudsConditions
Calm
10 km or more
  • Clear skies
  • No significant weather
TemperaturesReadingsPrecipitation
Current Temp33°C (91°F)
Dewpoint0°C (32°F)
Humidity12%
Altimeter29.91"Hg
Sea Level Pressure1013mb
Field Elevation95.14'
None Recorded

Additional weather within a 92.6km radius of OIAG

Location METAR
OIAM

54.4km W (248°)

37 minutes ago
VFR VFR    MVFR MVFR    IFR IFR    LIFR LIFR    Unknown Unknown

Previous 24 hour Weather Graphs

  Loading...

CheckWX.com is intended as a tool to help pilots better visualize weather data.   It is not intended as a substitute for an official weather briefing obtained from a Flight Service Station.
CheckWX.com does not meet the FAA requirements for an official pre-flight weather briefing.   Therefore, it's important that pilots still call and obtain an official FSS pre-flight weather briefing.